Amboy, Minnesota
Current Conditions -  °F | °C
As of 1:55 AM on Thursday 29 Jan 2015 (Local Time) from KJYG Reporting Station
Haze Haze  
Wind Chill: 22°   Ceiling: 1000
Heat Index: 34°   Visibility: 4mi
Dew Point: 32°   Wind: 23mph
Humidity: 93%   Direction: 310°NW
Pressure: 29.96"   Gusts: 33mph
Location:  43.89°N, 94.16°W
Report Text: KJYG 290755Z AUTO 31020G29KT 4SM BR BKN010 OVC014 01/00 A2996 RMK AO2
Loading
Personal Weather Stations






























Interactive Weather Map New forecast layout! Learn more

10-Day Weather Forecast

Advertisements
Track Severe Weather on mobile